sensor_id;sensor_type;location;lat;lon;timestamp;P1;durP1;ratioP1;P2;durP2;ratioP2
11907;SDS011;6014;47.690;9.130;2023-02-28T00:00:06;5.60;;;3.60;;
11907;SDS011;6014;47.690;9.130;2023-02-28T00:05:24;6.67;;;3.77;;
11907;SDS011;6014;47.690;9.130;2023-02-28T00:07:53;5.80;;;3.50;;
11907;SDS011;6014;47.690;9.130;2023-02-28T00:10:24;5.77;;;3.40;;
11907;SDS011;6014;47.690;9.130;2023-02-28T00:12:55;5.77;;;3.63;;
11907;SDS011;6014;47.690;9.130;2023-02-28T00:15:27;6.17;;;3.60;;
11907;SDS011;6014;47.690;9.130;2023-02-28T00:17:55;6.93;;;3.90;;
11907;SDS011;6014;47.690;9.130;2023-02-28T00:20:23;6.77;;;3.27;;
11907;SDS011;6014;47.690;9.130;2023-02-28T00:22:52;7.53;;;3.37;;
11907;SDS011;6014;47.690;9.130;2023-02-28T00:25:21;6.47;;;3.73;;
11907;SDS011;6014;47.690;9.130;2023-02-28T00:27:50;7.43;;;3.60;;
11907;SDS011;6014;47.690;9.130;2023-02-28T00:30:21;6.43;;;3.23;;
11907;SDS011;6014;47.690;9.130;2023-02-28T00:32:50;6.60;;;4.07;;
11907;SDS011;6014;47.690;9.130;2023-02-28T00:35:18;5.83;;;3.60;;
11907;SDS011;6014;47.690;9.130;2023-02-28T00:37:47;6.93;;;4.57;;
11907;SDS011;6014;47.690;9.130;2023-02-28T00:40:16;6.80;;;3.27;;
11907;SDS011;6014;47.690;9.130;2023-02-28T00:42:44;5.93;;;3.40;;
11907;SDS011;6014;47.690;9.130;2023-02-28T00:45:12;6.80;;;4.30;;
11907;SDS011;6014;47.690;9.130;2023-02-28T00:47:42;6.50;;;3.53;;
11907;SDS011;6014;47.690;9.130;2023-02-28T00:50:13;6.20;;;3.63;;
11907;SDS011;6014;47.690;9.130;2023-02-28T00:52:43;8.00;;;3.40;;
11907;SDS011;6014;47.690;9.130;2023-02-28T00:55:14;4.83;;;3.13;;
11907;SDS011;6014;47.690;9.130;2023-02-28T00:57:45;4.93;;;2.97;;
11907;SDS011;6014;47.690;9.130;2023-02-28T01:00:24;5.93;;;3.43;;
11907;SDS011;6014;47.690;9.130;2023-02-28T01:02:54;5.97;;;3.13;;
11907;SDS011;6014;47.690;9.130;2023-02-28T01:05:25;5.73;;;3.57;;
11907;SDS011;6014;47.690;9.130;2023-02-28T01:07:53;10.00;;;3.43;;
11907;SDS011;6014;47.690;9.130;2023-02-28T01:10:22;6.43;;;3.37;;
11907;SDS011;6014;47.690;9.130;2023-02-28T01:13:05;6.37;;;3.53;;
11907;SDS011;6014;47.690;9.130;2023-02-28T01:15:35;5.37;;;3.43;;
11907;SDS011;6014;47.690;9.130;2023-02-28T01:20:42;6.67;;;3.53;;
11907;SDS011;6014;47.690;9.130;2023-02-28T01:23:16;8.30;;;3.70;;
11907;SDS011;6014;47.690;9.130;2023-02-28T01:25:48;7.23;;;3.50;;
11907;SDS011;6014;47.690;9.130;2023-02-28T01:28:19;4.93;;;3.10;;
11907;SDS011;6014;47.690;9.130;2023-02-28T01:33:48;6.80;;;4.07;;
11907;SDS011;6014;47.690;9.130;2023-02-28T01:36:25;5.30;;;2.90;;
11907;SDS011;6014;47.690;9.130;2023-02-28T01:38:54;5.33;;;3.30;;
11907;SDS011;6014;47.690;9.130;2023-02-28T01:41:24;6.13;;;3.07;;
11907;SDS011;6014;47.690;9.130;2023-02-28T01:44:00;5.33;;;3.23;;
11907;SDS011;6014;47.690;9.130;2023-02-28T01:46:32;4.77;;;2.87;;
11907;SDS011;6014;47.690;9.130;2023-02-28T01:49:05;5.50;;;3.17;;
11907;SDS011;6014;47.690;9.130;2023-02-28T01:51:38;6.33;;;3.47;;
11907;SDS011;6014;47.690;9.130;2023-02-28T01:54:18;6.77;;;3.57;;
11907;SDS011;6014;47.690;9.130;2023-02-28T01:56:51;5.40;;;3.03;;
11907;SDS011;6014;47.690;9.130;2023-02-28T01:59:25;6.50;;;3.50;;
11907;SDS011;6014;47.690;9.130;2023-02-28T02:01:58;4.90;;;3.20;;
11907;SDS011;6014;47.690;9.130;2023-02-28T02:04:32;5.63;;;3.50;;
11907;SDS011;6014;47.690;9.130;2023-02-28T02:07:06;4.37;;;2.70;;
11907;SDS011;6014;47.690;9.130;2023-02-28T02:09:39;6.30;;;3.50;;
11907;SDS011;6014;47.690;9.130;2023-02-28T02:12:10;6.27;;;2.97;;
11907;SDS011;6014;47.690;9.130;2023-02-28T02:14:56;5.43;;;3.00;;
11907;SDS011;6014;47.690;9.130;2023-02-28T02:17:35;7.13;;;3.33;;
11907;SDS011;6014;47.690;9.130;2023-02-28T02:20:21;7.27;;;3.30;;
11907;SDS011;6014;47.690;9.130;2023-02-28T02:26:45;4.60;;;2.90;;
11907;SDS011;6014;47.690;9.130;2023-02-28T02:35:38;4.73;;;2.77;;
11907;SDS011;6014;47.690;9.130;2023-02-28T02:38:17;4.77;;;2.90;;
11907;SDS011;6014;47.690;9.130;2023-02-28T02:43:40;6.03;;;3.73;;
11907;SDS011;6014;47.690;9.130;2023-02-28T02:46:15;5.30;;;3.03;;
11907;SDS011;6014;47.690;9.130;2023-02-28T02:48:54;5.43;;;3.17;;
11907;SDS011;6014;47.690;9.130;2023-02-28T02:51:28;5.27;;;3.17;;
11907;SDS011;6014;47.690;9.130;2023-02-28T02:54:02;4.40;;;2.67;;
11907;SDS011;6014;47.690;9.130;2023-02-28T02:56:38;6.33;;;3.07;;
11907;SDS011;6014;47.690;9.130;2023-02-28T02:59:17;5.33;;;2.97;;
11907;SDS011;6014;47.690;9.130;2023-02-28T03:01:48;5.37;;;3.33;;
11907;SDS011;6014;47.690;9.130;2023-02-28T03:04:22;6.10;;;2.70;;
11907;SDS011;6014;47.690;9.130;2023-02-28T03:06:54;5.90;;;3.67;;
11907;SDS011;6014;47.690;9.130;2023-02-28T03:09:24;5.57;;;3.20;;
11907;SDS011;6014;47.690;9.130;2023-02-28T03:11:53;4.90;;;2.43;;
11907;SDS011;6014;47.690;9.130;2023-02-28T03:14:25;4.33;;;2.80;;
11907;SDS011;6014;47.690;9.130;2023-02-28T03:17:10;5.20;;;3.10;;
11907;SDS011;6014;47.690;9.130;2023-02-28T03:20:01;7.17;;;3.43;;
11907;SDS011;6014;47.690;9.130;2023-02-28T03:22:47;4.70;;;2.93;;
11907;SDS011;6014;47.690;9.130;2023-02-28T03:25:24;5.87;;;3.10;;
11907;SDS011;6014;47.690;9.130;2023-02-28T03:28:00;5.53;;;3.17;;
11907;SDS011;6014;47.690;9.130;2023-02-28T03:30:37;6.20;;;3.30;;
11907;SDS011;6014;47.690;9.130;2023-02-28T03:33:10;5.10;;;2.70;;
11907;SDS011;6014;47.690;9.130;2023-02-28T03:35:42;6.73;;;3.50;;
11907;SDS011;6014;47.690;9.130;2023-02-28T03:38:17;5.03;;;2.53;;
11907;SDS011;6014;47.690;9.130;2023-02-28T03:40:50;6.73;;;3.20;;
11907;SDS011;6014;47.690;9.130;2023-02-28T03:43:22;4.77;;;3.00;;
11907;SDS011;6014;47.690;9.130;2023-02-28T03:45:54;5.17;;;2.97;;
11907;SDS011;6014;47.690;9.130;2023-02-28T03:48:24;5.20;;;2.80;;
11907;SDS011;6014;47.690;9.130;2023-02-28T03:50:57;4.73;;;2.77;;
11907;SDS011;6014;47.690;9.130;2023-02-28T03:53:29;6.10;;;3.17;;
11907;SDS011;6014;47.690;9.130;2023-02-28T03:56:01;4.97;;;2.77;;
11907;SDS011;6014;47.690;9.130;2023-02-28T03:58:36;6.00;;;3.27;;
11907;SDS011;6014;47.690;9.130;2023-02-28T04:01:09;5.97;;;3.07;;
11907;SDS011;6014;47.690;9.130;2023-02-28T04:03:40;6.50;;;3.10;;
11907;SDS011;6014;47.690;9.130;2023-02-28T04:06:12;5.07;;;3.00;;
11907;SDS011;6014;47.690;9.130;2023-02-28T04:08:44;6.10;;;3.30;;
11907;SDS011;6014;47.690;9.130;2023-02-28T04:11:16;5.00;;;2.60;;
11907;SDS011;6014;47.690;9.130;2023-02-28T04:13:49;5.53;;;2.93;;
11907;SDS011;6014;47.690;9.130;2023-02-28T04:16:17;5.23;;;3.07;;
11907;SDS011;6014;47.690;9.130;2023-02-28T04:19:00;5.47;;;3.10;;
11907;SDS011;6014;47.690;9.130;2023-02-28T04:21:29;6.63;;;3.20;;
11907;SDS011;6014;47.690;9.130;2023-02-28T04:24:00;5.17;;;2.80;;
11907;SDS011;6014;47.690;9.130;2023-02-28T04:26:28;5.50;;;3.20;;
11907;SDS011;6014;47.690;9.130;2023-02-28T04:28:57;4.87;;;2.90;;
11907;SDS011;6014;47.690;9.130;2023-02-28T04:31:25;5.30;;;2.90;;
11907;SDS011;6014;47.690;9.130;2023-02-28T04:33:54;6.63;;;3.40;;
11907;SDS011;6014;47.690;9.130;2023-02-28T04:36:22;6.30;;;3.53;;
11907;SDS011;6014;47.690;9.130;2023-02-28T04:38:50;5.17;;;3.20;;
11907;SDS011;6014;47.690;9.130;2023-02-28T04:41:20;6.20;;;3.70;;
11907;SDS011;6014;47.690;9.130;2023-02-28T04:43:50;7.40;;;3.53;;
11907;SDS011;6014;47.690;9.130;2023-02-28T04:46:18;5.67;;;3.53;;
11907;SDS011;6014;47.690;9.130;2023-02-28T04:51:18;5.23;;;3.40;;
11907;SDS011;6014;47.690;9.130;2023-02-28T04:53:47;6.77;;;4.23;;
11907;SDS011;6014;47.690;9.130;2023-02-28T04:56:16;6.20;;;3.77;;
11907;SDS011;6014;47.690;9.130;2023-02-28T04:58:49;6.73;;;3.63;;
11907;SDS011;6014;47.690;9.130;2023-02-28T05:01:20;7.63;;;3.40;;
11907;SDS011;6014;47.690;9.130;2023-02-28T05:03:50;6.13;;;3.40;;
11907;SDS011;6014;47.690;9.130;2023-02-28T05:06:20;6.10;;;3.77;;
11907;SDS011;6014;47.690;9.130;2023-02-28T05:08:50;6.30;;;3.83;;
11907;SDS011;6014;47.690;9.130;2023-02-28T05:11:19;8.00;;;3.77;;
11907;SDS011;6014;47.690;9.130;2023-02-28T05:13:51;6.13;;;3.40;;
11907;SDS011;6014;47.690;9.130;2023-02-28T05:16:20;6.13;;;3.97;;
11907;SDS011;6014;47.690;9.130;2023-02-28T05:18:49;6.10;;;3.50;;
11907;SDS011;6014;47.690;9.130;2023-02-28T05:21:27;5.93;;;3.73;;
11907;SDS011;6014;47.690;9.130;2023-02-28T05:23:57;6.50;;;3.83;;
11907;SDS011;6014;47.690;9.130;2023-02-28T05:26:30;6.13;;;3.30;;
11907;SDS011;6014;47.690;9.130;2023-02-28T05:29:03;6.17;;;3.70;;
11907;SDS011;6014;47.690;9.130;2023-02-28T05:31:31;6.43;;;3.20;;
11907;SDS011;6014;47.690;9.130;2023-02-28T05:34:00;6.23;;;3.60;;
11907;SDS011;6014;47.690;9.130;2023-02-28T05:36:30;5.37;;;3.33;;
11907;SDS011;6014;47.690;9.130;2023-02-28T05:38:58;5.27;;;3.27;;
11907;SDS011;6014;47.690;9.130;2023-02-28T05:41:26;7.10;;;4.03;;
11907;SDS011;6014;47.690;9.130;2023-02-28T05:43:55;6.43;;;3.93;;
11907;SDS011;6014;47.690;9.130;2023-02-28T05:46:25;7.33;;;4.03;;
11907;SDS011;6014;47.690;9.130;2023-02-28T05:48:53;7.17;;;4.40;;
11907;SDS011;6014;47.690;9.130;2023-02-28T05:51:22;6.20;;;3.47;;
11907;SDS011;6014;47.690;9.130;2023-02-28T05:53:50;6.70;;;4.37;;
11907;SDS011;6014;47.690;9.130;2023-02-28T05:56:18;6.60;;;3.63;;
11907;SDS011;6014;47.690;9.130;2023-02-28T05:58:46;7.00;;;4.20;;
11907;SDS011;6014;47.690;9.130;2023-02-28T06:01:22;8.30;;;4.03;;
11907;SDS011;6014;47.690;9.130;2023-02-28T06:03:53;7.67;;;4.17;;
11907;SDS011;6014;47.690;9.130;2023-02-28T06:06:21;6.20;;;3.33;;
11907;SDS011;6014;47.690;9.130;2023-02-28T06:08:49;6.07;;;3.97;;
11907;SDS011;6014;47.690;9.130;2023-02-28T06:11:17;6.80;;;4.13;;
11907;SDS011;6014;47.690;9.130;2023-02-28T06:13:46;7.50;;;4.47;;
11907;SDS011;6014;47.690;9.130;2023-02-28T06:16:14;6.90;;;4.20;;
11907;SDS011;6014;47.690;9.130;2023-02-28T06:18:42;6.73;;;3.57;;
11907;SDS011;6014;47.690;9.130;2023-02-28T06:21:13;5.00;;;3.43;;
11907;SDS011;6014;47.690;9.130;2023-02-28T06:23:41;6.80;;;3.97;;
11907;SDS011;6014;47.690;9.130;2023-02-28T06:26:10;7.60;;;4.40;;
11907;SDS011;6014;47.690;9.130;2023-02-28T06:28:38;6.77;;;3.83;;
11907;SDS011;6014;47.690;9.130;2023-02-28T06:31:06;7.10;;;4.60;;
11907;SDS011;6014;47.690;9.130;2023-02-28T06:33:35;9.20;;;4.47;;
11907;SDS011;6014;47.690;9.130;2023-02-28T06:36:04;6.87;;;4.10;;
11907;SDS011;6014;47.690;9.130;2023-02-28T06:38:34;10.67;;;4.13;;
11907;SDS011;6014;47.690;9.130;2023-02-28T06:41:03;7.13;;;4.40;;
11907;SDS011;6014;47.690;9.130;2023-02-28T06:43:33;5.23;;;3.37;;
11907;SDS011;6014;47.690;9.130;2023-02-28T06:46:03;7.47;;;4.53;;
11907;SDS011;6014;47.690;9.130;2023-02-28T06:48:33;8.90;;;4.37;;
11907;SDS011;6014;47.690;9.130;2023-02-28T06:51:05;6.93;;;4.03;;
11907;SDS011;6014;47.690;9.130;2023-02-28T06:53:36;6.60;;;3.67;;
11907;SDS011;6014;47.690;9.130;2023-02-28T06:56:05;5.97;;;4.10;;
11907;SDS011;6014;47.690;9.130;2023-02-28T06:58:34;6.60;;;4.10;;
11907;SDS011;6014;47.690;9.130;2023-02-28T07:01:03;8.07;;;4.40;;
11907;SDS011;6014;47.690;9.130;2023-02-28T07:03:34;7.37;;;4.07;;
11907;SDS011;6014;47.690;9.130;2023-02-28T07:06:04;7.23;;;4.40;;
11907;SDS011;6014;47.690;9.130;2023-02-28T07:08:33;7.33;;;3.87;;
11907;SDS011;6014;47.690;9.130;2023-02-28T07:11:06;7.13;;;4.40;;
11907;SDS011;6014;47.690;9.130;2023-02-28T07:13:34;9.43;;;4.27;;
11907;SDS011;6014;47.690;9.130;2023-02-28T07:16:03;6.20;;;3.97;;
11907;SDS011;6014;47.690;9.130;2023-02-28T07:18:35;6.73;;;4.60;;
11907;SDS011;6014;47.690;9.130;2023-02-28T07:21:04;7.70;;;4.73;;
11907;SDS011;6014;47.690;9.130;2023-02-28T07:23:33;7.37;;;4.13;;
11907;SDS011;6014;47.690;9.130;2023-02-28T07:26:13;8.00;;;4.33;;
11907;SDS011;6014;47.690;9.130;2023-02-28T07:28:45;7.27;;;4.17;;
11907;SDS011;6014;47.690;9.130;2023-02-28T07:31:15;6.90;;;4.37;;
11907;SDS011;6014;47.690;9.130;2023-02-28T07:33:44;6.83;;;4.33;;
11907;SDS011;6014;47.690;9.130;2023-02-28T07:36:13;10.03;;;4.40;;
11907;SDS011;6014;47.690;9.130;2023-02-28T07:38:58;7.03;;;4.03;;
11907;SDS011;6014;47.690;9.130;2023-02-28T07:41:29;8.23;;;5.40;;
11907;SDS011;6014;47.690;9.130;2023-02-28T07:46:47;7.17;;;4.60;;
11907;SDS011;6014;47.690;9.130;2023-02-28T07:49:15;8.10;;;4.73;;
11907;SDS011;6014;47.690;9.130;2023-02-28T07:54:41;6.90;;;4.07;;
11907;SDS011;6014;47.690;9.130;2023-02-28T07:57:11;7.40;;;4.60;;
11907;SDS011;6014;47.690;9.130;2023-02-28T07:59:39;7.87;;;4.70;;
11907;SDS011;6014;47.690;9.130;2023-02-28T08:02:10;7.50;;;4.63;;
11907;SDS011;6014;47.690;9.130;2023-02-28T08:04:40;7.10;;;4.23;;
11907;SDS011;6014;47.690;9.130;2023-02-28T08:07:08;7.50;;;4.47;;
11907;SDS011;6014;47.690;9.130;2023-02-28T08:09:39;7.77;;;4.80;;
11907;SDS011;6014;47.690;9.130;2023-02-28T08:12:07;6.60;;;4.30;;
11907;SDS011;6014;47.690;9.130;2023-02-28T08:14:38;8.17;;;4.93;;
11907;SDS011;6014;47.690;9.130;2023-02-28T08:17:06;7.17;;;4.67;;
11907;SDS011;6014;47.690;9.130;2023-02-28T08:19:34;7.83;;;4.57;;
11907;SDS011;6014;47.690;9.130;2023-02-28T08:22:02;8.37;;;4.70;;
11907;SDS011;6014;47.690;9.130;2023-02-28T08:24:30;8.60;;;4.50;;
11907;SDS011;6014;47.690;9.130;2023-02-28T08:26:59;7.67;;;4.33;;
11907;SDS011;6014;47.690;9.130;2023-02-28T08:29:27;8.00;;;4.47;;
11907;SDS011;6014;47.690;9.130;2023-02-28T08:31:59;8.80;;;4.50;;
11907;SDS011;6014;47.690;9.130;2023-02-28T08:34:28;7.20;;;4.30;;
11907;SDS011;6014;47.690;9.130;2023-02-28T08:36:57;6.37;;;4.43;;
11907;SDS011;6014;47.690;9.130;2023-02-28T08:39:25;8.47;;;4.37;;
11907;SDS011;6014;47.690;9.130;2023-02-28T08:41:53;7.30;;;4.00;;
11907;SDS011;6014;47.690;9.130;2023-02-28T08:44:32;8.47;;;4.70;;
11907;SDS011;6014;47.690;9.130;2023-02-28T08:47:03;7.53;;;4.73;;
11907;SDS011;6014;47.690;9.130;2023-02-28T08:49:31;8.30;;;4.47;;
11907;SDS011;6014;47.690;9.130;2023-02-28T08:51:59;8.23;;;4.37;;
11907;SDS011;6014;47.690;9.130;2023-02-28T08:54:27;7.70;;;5.40;;
11907;SDS011;6014;47.690;9.130;2023-02-28T08:56:57;7.03;;;4.43;;
11907;SDS011;6014;47.690;9.130;2023-02-28T08:59:25;7.77;;;4.70;;
11907;SDS011;6014;47.690;9.130;2023-02-28T09:01:53;7.50;;;4.83;;
11907;SDS011;6014;47.690;9.130;2023-02-28T09:04:23;7.27;;;4.53;;
11907;SDS011;6014;47.690;9.130;2023-02-28T09:06:51;7.23;;;4.60;;
11907;SDS011;6014;47.690;9.130;2023-02-28T09:09:19;7.77;;;4.33;;
11907;SDS011;6014;47.690;9.130;2023-02-28T09:11:47;7.77;;;4.70;;
11907;SDS011;6014;47.690;9.130;2023-02-28T09:14:15;6.90;;;4.13;;
11907;SDS011;6014;47.690;9.130;2023-02-28T09:16:43;7.73;;;5.30;;
11907;SDS011;6014;47.690;9.130;2023-02-28T09:19:11;8.27;;;4.47;;
11907;SDS011;6014;47.690;9.130;2023-02-28T09:21:41;7.93;;;4.73;;
11907;SDS011;6014;47.690;9.130;2023-02-28T09:24:09;6.93;;;4.27;;
11907;SDS011;6014;47.690;9.130;2023-02-28T09:26:40;7.77;;;4.77;;
11907;SDS011;6014;47.690;9.130;2023-02-28T09:29:28;8.20;;;4.33;;
11907;SDS011;6014;47.690;9.130;2023-02-28T09:32:10;8.20;;;4.80;;
11907;SDS011;6014;47.690;9.130;2023-02-28T09:34:39;7.30;;;4.60;;
11907;SDS011;6014;47.690;9.130;2023-02-28T09:37:08;8.60;;;4.97;;
11907;SDS011;6014;47.690;9.130;2023-02-28T09:39:36;6.80;;;4.13;;
11907;SDS011;6014;47.690;9.130;2023-02-28T09:42:04;7.73;;;4.87;;
11907;SDS011;6014;47.690;9.130;2023-02-28T09:44:40;7.60;;;4.40;;
11907;SDS011;6014;47.690;9.130;2023-02-28T09:47:12;7.70;;;4.60;;
11907;SDS011;6014;47.690;9.130;2023-02-28T09:49:46;8.40;;;4.43;;
11907;SDS011;6014;47.690;9.130;2023-02-28T09:52:17;8.20;;;5.37;;
11907;SDS011;6014;47.690;9.130;2023-02-28T09:54:47;9.10;;;4.80;;
11907;SDS011;6014;47.690;9.130;2023-02-28T09:57:17;7.67;;;4.17;;
11907;SDS011;6014;47.690;9.130;2023-02-28T09:59:53;8.30;;;5.00;;
11907;SDS011;6014;47.690;9.130;2023-02-28T10:02:40;7.83;;;4.47;;
11907;SDS011;6014;47.690;9.130;2023-02-28T10:05:16;7.40;;;4.67;;
11907;SDS011;6014;47.690;9.130;2023-02-28T10:07:52;7.73;;;4.97;;
11907;SDS011;6014;47.690;9.130;2023-02-28T10:10:33;7.33;;;5.30;;
11907;SDS011;6014;47.690;9.130;2023-02-28T10:13:06;7.87;;;4.67;;
11907;SDS011;6014;47.690;9.130;2023-02-28T10:15:42;9.00;;;4.77;;
11907;SDS011;6014;47.690;9.130;2023-02-28T10:18:14;7.53;;;4.27;;
11907;SDS011;6014;47.690;9.130;2023-02-28T10:20:47;9.23;;;4.57;;
11907;SDS011;6014;47.690;9.130;2023-02-28T10:23:21;8.03;;;4.80;;
11907;SDS011;6014;47.690;9.130;2023-02-28T10:25:54;7.53;;;4.00;;
11907;SDS011;6014;47.690;9.130;2023-02-28T10:28:26;8.43;;;4.47;;
11907;SDS011;6014;47.690;9.130;2023-02-28T10:30:57;9.20;;;4.27;;
11907;SDS011;6014;47.690;9.130;2023-02-28T10:33:28;7.97;;;4.83;;
11907;SDS011;6014;47.690;9.130;2023-02-28T10:35:58;8.57;;;4.57;;
11907;SDS011;6014;47.690;9.130;2023-02-28T10:38:31;8.43;;;5.20;;
11907;SDS011;6014;47.690;9.130;2023-02-28T10:41:05;7.67;;;4.17;;
11907;SDS011;6014;47.690;9.130;2023-02-28T10:43:35;7.63;;;4.53;;
11907;SDS011;6014;47.690;9.130;2023-02-28T10:46:04;7.53;;;4.77;;
11907;SDS011;6014;47.690;9.130;2023-02-28T10:48:42;8.27;;;4.50;;
11907;SDS011;6014;47.690;9.130;2023-02-28T10:51:15;7.03;;;4.20;;
11907;SDS011;6014;47.690;9.130;2023-02-28T10:53:47;10.13;;;5.10;;
11907;SDS011;6014;47.690;9.130;2023-02-28T10:56:27;9.23;;;5.17;;
11907;SDS011;6014;47.690;9.130;2023-02-28T10:58:58;8.83;;;5.10;;
11907;SDS011;6014;47.690;9.130;2023-02-28T11:04:16;7.83;;;4.70;;
11907;SDS011;6014;47.690;9.130;2023-02-28T11:06:47;8.97;;;5.40;;
11907;SDS011;6014;47.690;9.130;2023-02-28T11:09:26;8.33;;;5.60;;
11907;SDS011;6014;47.690;9.130;2023-02-28T11:11:56;8.17;;;5.43;;
11907;SDS011;6014;47.690;9.130;2023-02-28T11:14:25;8.67;;;5.07;;
11907;SDS011;6014;47.690;9.130;2023-02-28T11:16:58;8.73;;;5.33;;
11907;SDS011;6014;47.690;9.130;2023-02-28T11:19:30;7.00;;;4.53;;
11907;SDS011;6014;47.690;9.130;2023-02-28T11:22:02;8.73;;;5.17;;
11907;SDS011;6014;47.690;9.130;2023-02-28T11:24:35;9.17;;;5.37;;
11907;SDS011;6014;47.690;9.130;2023-02-28T11:27:13;8.63;;;5.40;;
11907;SDS011;6014;47.690;9.130;2023-02-28T11:29:53;10.60;;;6.33;;
11907;SDS011;6014;47.690;9.130;2023-02-28T11:32:21;8.83;;;5.27;;
11907;SDS011;6014;47.690;9.130;2023-02-28T11:34:59;10.60;;;5.63;;
11907;SDS011;6014;47.690;9.130;2023-02-28T11:37:29;9.33;;;5.70;;
11907;SDS011;6014;47.690;9.130;2023-02-28T11:40:00;10.17;;;5.10;;
11907;SDS011;6014;47.690;9.130;2023-02-28T11:42:39;8.73;;;5.27;;
11907;SDS011;6014;47.690;9.130;2023-02-28T11:45:20;10.23;;;6.17;;
11907;SDS011;6014;47.690;9.130;2023-02-28T11:47:55;9.40;;;5.83;;
11907;SDS011;6014;47.690;9.130;2023-02-28T11:50:36;8.30;;;4.90;;
11907;SDS011;6014;47.690;9.130;2023-02-28T11:53:28;8.87;;;5.87;;
11907;SDS011;6014;47.690;9.130;2023-02-28T11:56:12;8.70;;;5.70;;
11907;SDS011;6014;47.690;9.130;2023-02-28T11:58:49;7.97;;;4.80;;
11907;SDS011;6014;47.690;9.130;2023-02-28T12:01:38;9.10;;;5.57;;
11907;SDS011;6014;47.690;9.130;2023-02-28T12:04:19;9.33;;;5.10;;
11907;SDS011;6014;47.690;9.130;2023-02-28T12:06:54;10.13;;;5.73;;
11907;SDS011;6014;47.690;9.130;2023-02-28T12:09:38;10.10;;;5.53;;
11907;SDS011;6014;47.690;9.130;2023-02-28T12:12:32;9.43;;;5.77;;
11907;SDS011;6014;47.690;9.130;2023-02-28T12:18:16;10.83;;;7.23;;
11907;SDS011;6014;47.690;9.130;2023-02-28T12:21:11;12.40;;;7.10;;
11907;SDS011;6014;47.690;9.130;2023-02-28T12:23:53;9.50;;;5.47;;
11907;SDS011;6014;47.690;9.130;2023-02-28T12:26:34;9.60;;;6.03;;
11907;SDS011;6014;47.690;9.130;2023-02-28T12:29:10;10.00;;;5.47;;
11907;SDS011;6014;47.690;9.130;2023-02-28T12:31:46;9.20;;;5.87;;
11907;SDS011;6014;47.690;9.130;2023-02-28T12:34:20;9.60;;;5.97;;
11907;SDS011;6014;47.690;9.130;2023-02-28T12:36:52;11.67;;;6.53;;
11907;SDS011;6014;47.690;9.130;2023-02-28T12:39:23;10.60;;;6.20;;
11907;SDS011;6014;47.690;9.130;2023-02-28T12:41:57;10.20;;;6.43;;
11907;SDS011;6014;47.690;9.130;2023-02-28T12:44:32;11.70;;;6.73;;
11907;SDS011;6014;47.690;9.130;2023-02-28T12:47:03;9.43;;;5.97;;
11907;SDS011;6014;47.690;9.130;2023-02-28T12:49:37;10.37;;;6.63;;
11907;SDS011;6014;47.690;9.130;2023-02-28T12:52:12;10.20;;;6.07;;
11907;SDS011;6014;47.690;9.130;2023-02-28T12:54:44;13.27;;;7.67;;
11907;SDS011;6014;47.690;9.130;2023-02-28T12:57:18;10.73;;;6.87;;
11907;SDS011;6014;47.690;9.130;2023-02-28T12:59:55;9.63;;;6.13;;
11907;SDS011;6014;47.690;9.130;2023-02-28T13:02:49;10.97;;;6.83;;
11907;SDS011;6014;47.690;9.130;2023-02-28T13:05:39;12.10;;;7.07;;
11907;SDS011;6014;47.690;9.130;2023-02-28T13:11:31;10.10;;;6.67;;
11907;SDS011;6014;47.690;9.130;2023-02-28T13:14:02;11.67;;;6.63;;
11907;SDS011;6014;47.690;9.130;2023-02-28T13:19:40;10.10;;;6.07;;
11907;SDS011;6014;47.690;9.130;2023-02-28T13:22:16;10.93;;;6.40;;
11907;SDS011;6014;47.690;9.130;2023-02-28T13:24:48;10.27;;;6.43;;
11907;SDS011;6014;47.690;9.130;2023-02-28T13:27:23;11.90;;;6.53;;
11907;SDS011;6014;47.690;9.130;2023-02-28T13:33:25;10.67;;;7.03;;
11907;SDS011;6014;47.690;9.130;2023-02-28T13:38:56;11.23;;;6.83;;
11907;SDS011;6014;47.690;9.130;2023-02-28T13:41:41;11.27;;;6.90;;
11907;SDS011;6014;47.690;9.130;2023-02-28T13:44:11;10.10;;;6.33;;
11907;SDS011;6014;47.690;9.130;2023-02-28T13:49:47;12.23;;;6.93;;
11907;SDS011;6014;47.690;9.130;2023-02-28T13:52:17;10.43;;;7.17;;
11907;SDS011;6014;47.690;9.130;2023-02-28T13:57:53;10.43;;;6.90;;
11907;SDS011;6014;47.690;9.130;2023-02-28T14:00:52;10.10;;;6.50;;
11907;SDS011;6014;47.690;9.130;2023-02-28T14:06:53;13.17;;;6.57;;
11907;SDS011;6014;47.690;9.130;2023-02-28T14:09:25;12.10;;;7.47;;
11907;SDS011;6014;47.690;9.130;2023-02-28T14:18:16;12.87;;;7.20;;
11907;SDS011;6014;47.690;9.130;2023-02-28T14:20:52;13.43;;;7.47;;
11907;SDS011;6014;47.690;9.130;2023-02-28T14:23:29;11.17;;;6.90;;
11907;SDS011;6014;47.690;9.130;2023-02-28T14:26:09;12.10;;;6.73;;
11907;SDS011;6014;47.690;9.130;2023-02-28T14:28:48;15.00;;;7.13;;
11907;SDS011;6014;47.690;9.130;2023-02-28T14:31:29;10.47;;;7.13;;
11907;SDS011;6014;47.690;9.130;2023-02-28T14:39:44;11.27;;;7.37;;
11907;SDS011;6014;47.690;9.130;2023-02-28T14:42:25;12.30;;;6.73;;
11907;SDS011;6014;47.690;9.130;2023-02-28T14:44:56;12.83;;;7.20;;
11907;SDS011;6014;47.690;9.130;2023-02-28T14:47:27;12.67;;;7.50;;
11907;SDS011;6014;47.690;9.130;2023-02-28T14:49:58;11.60;;;7.47;;
11907;SDS011;6014;47.690;9.130;2023-02-28T14:52:27;11.27;;;6.97;;
11907;SDS011;6014;47.690;9.130;2023-02-28T14:55:00;14.23;;;8.13;;
11907;SDS011;6014;47.690;9.130;2023-02-28T14:57:32;13.87;;;7.73;;
11907;SDS011;6014;47.690;9.130;2023-02-28T15:00:07;11.40;;;7.13;;
11907;SDS011;6014;47.690;9.130;2023-02-28T15:02:47;11.47;;;6.70;;
11907;SDS011;6014;47.690;9.130;2023-02-28T15:05:25;12.73;;;7.60;;
11907;SDS011;6014;47.690;9.130;2023-02-28T15:08:06;13.00;;;7.33;;
11907;SDS011;6014;47.690;9.130;2023-02-28T15:10:41;12.03;;;8.20;;
11907;SDS011;6014;47.690;9.130;2023-02-28T15:13:12;14.37;;;8.87;;
11907;SDS011;6014;47.690;9.130;2023-02-28T15:15:43;15.13;;;8.30;;
11907;SDS011;6014;47.690;9.130;2023-02-28T15:18:31;11.73;;;7.63;;
11907;SDS011;6014;47.690;9.130;2023-02-28T15:21:22;13.20;;;8.03;;
11907;SDS011;6014;47.690;9.130;2023-02-28T15:23:52;13.50;;;8.43;;
11907;SDS011;6014;47.690;9.130;2023-02-28T15:29:13;10.77;;;7.03;;
11907;SDS011;6014;47.690;9.130;2023-02-28T15:34:27;11.27;;;6.27;;
11907;SDS011;6014;47.690;9.130;2023-02-28T15:37:26;11.73;;;8.27;;
11907;SDS011;6014;47.690;9.130;2023-02-28T15:40:07;12.37;;;7.67;;
11907;SDS011;6014;47.690;9.130;2023-02-28T15:42:41;12.93;;;8.13;;
11907;SDS011;6014;47.690;9.130;2023-02-28T15:45:27;11.93;;;7.23;;
11907;SDS011;6014;47.690;9.130;2023-02-28T15:48:01;12.97;;;7.80;;
11907;SDS011;6014;47.690;9.130;2023-02-28T15:50:39;11.60;;;7.60;;
11907;SDS011;6014;47.690;9.130;2023-02-28T15:53:12;13.10;;;7.80;;
11907;SDS011;6014;47.690;9.130;2023-02-28T15:55:41;10.83;;;6.87;;
11907;SDS011;6014;47.690;9.130;2023-02-28T15:58:11;11.07;;;7.07;;
11907;SDS011;6014;47.690;9.130;2023-02-28T16:00:40;10.80;;;6.87;;
11907;SDS011;6014;47.690;9.130;2023-02-28T16:03:26;13.60;;;7.47;;
11907;SDS011;6014;47.690;9.130;2023-02-28T16:06:09;13.30;;;8.33;;
11907;SDS011;6014;47.690;9.130;2023-02-28T16:08:52;11.03;;;8.13;;
11907;SDS011;6014;47.690;9.130;2023-02-28T16:11:21;11.27;;;7.27;;
11907;SDS011;6014;47.690;9.130;2023-02-28T16:13:51;11.30;;;7.73;;
11907;SDS011;6014;47.690;9.130;2023-02-28T16:16:20;12.60;;;7.60;;
11907;SDS011;6014;47.690;9.130;2023-02-28T16:18:53;13.53;;;7.70;;
11907;SDS011;6014;47.690;9.130;2023-02-28T16:23:53;11.47;;;7.20;;
11907;SDS011;6014;47.690;9.130;2023-02-28T16:26:22;13.73;;;8.90;;
11907;SDS011;6014;47.690;9.130;2023-02-28T16:28:55;13.53;;;7.90;;
11907;SDS011;6014;47.690;9.130;2023-02-28T16:31:23;12.60;;;8.13;;
11907;SDS011;6014;47.690;9.130;2023-02-28T16:33:51;11.97;;;7.80;;
11907;SDS011;6014;47.690;9.130;2023-02-28T16:36:28;11.57;;;7.07;;
11907;SDS011;6014;47.690;9.130;2023-02-28T16:38:58;10.90;;;7.23;;
11907;SDS011;6014;47.690;9.130;2023-02-28T16:41:27;14.30;;;8.23;;
11907;SDS011;6014;47.690;9.130;2023-02-28T16:43:58;11.03;;;6.63;;
11907;SDS011;6014;47.690;9.130;2023-02-28T16:46:28;11.70;;;6.53;;
11907;SDS011;6014;47.690;9.130;2023-02-28T16:49:01;10.63;;;6.90;;